sensor_id;sensor_type;location;lat;lon;timestamp;P1;durP1;ratioP1;P2;durP2;ratioP2
24995;SDS011;13016;52.162;21.034;2023-07-24T00:29:08;6.60;;;5.00;;
24995;SDS011;13016;52.162;21.034;2023-07-24T00:35:09;9.40;;;5.10;;
24995;SDS011;13016;52.162;21.034;2023-07-24T00:41:10;6.30;;;4.70;;
24995;SDS011;13016;52.162;21.034;2023-07-24T00:47:10;6.80;;;4.90;;
24995;SDS011;13016;52.162;21.034;2023-07-24T01:41:25;7.60;;;5.00;;
24995;SDS011;13016;52.162;21.034;2023-07-24T01:47:26;6.90;;;4.70;;
24995;SDS011;13016;52.162;21.034;2023-07-24T01:53:26;6.30;;;4.90;;
24995;SDS011;13016;52.162;21.034;2023-07-24T01:59:26;9.10;;;4.70;;
24995;SDS011;13016;52.162;21.034;2023-07-24T02:05:27;7.80;;;4.40;;
24995;SDS011;13016;52.162;21.034;2023-07-24T02:11:42;5.90;;;4.00;;
24995;SDS011;13016;52.162;21.034;2023-07-24T02:18:04;6.50;;;4.30;;
24995;SDS011;13016;52.162;21.034;2023-07-24T02:30:05;7.70;;;4.50;;
24995;SDS011;13016;52.162;21.034;2023-07-24T02:36:06;5.70;;;3.90;;
24995;SDS011;13016;52.162;21.034;2023-07-24T02:42:06;4.60;;;3.60;;
24995;SDS011;13016;52.162;21.034;2023-07-24T02:48:07;5.10;;;3.70;;
24995;SDS011;13016;52.162;21.034;2023-07-24T03:00:08;10.00;;;4.20;;
24995;SDS011;13016;52.162;21.034;2023-07-24T03:06:13;4.80;;;3.80;;
24995;SDS011;13016;52.162;21.034;2023-07-24T03:12:19;5.70;;;4.00;;
24995;SDS011;13016;52.162;21.034;2023-07-24T03:25:36;4.70;;;3.50;;
24995;SDS011;13016;52.162;21.034;2023-07-24T03:42:40;6.40;;;4.00;;
24995;SDS011;13016;52.162;21.034;2023-07-24T03:48:41;7.90;;;3.30;;
24995;SDS011;13016;52.162;21.034;2023-07-24T03:54:41;5.60;;;3.80;;
24995;SDS011;13016;52.162;21.034;2023-07-24T04:07:20;4.70;;;3.30;;
24995;SDS011;13016;52.162;21.034;2023-07-24T04:13:21;5.40;;;3.30;;
24995;SDS011;13016;52.162;21.034;2023-07-24T04:19:22;5.70;;;3.90;;
24995;SDS011;13016;52.162;21.034;2023-07-24T04:25:23;7.30;;;3.90;;
24995;SDS011;13016;52.162;21.034;2023-07-24T04:31:23;3.50;;;3.20;;
24995;SDS011;13016;52.162;21.034;2023-07-24T04:37:24;6.90;;;3.80;;
24995;SDS011;13016;52.162;21.034;2023-07-24T04:58:43;6.50;;;3.90;;
24995;SDS011;13016;52.162;21.034;2023-07-24T05:04:43;4.60;;;3.70;;
24995;SDS011;13016;52.162;21.034;2023-07-24T05:10:44;7.00;;;3.70;;
24995;SDS011;13016;52.162;21.034;2023-07-24T05:16:44;5.80;;;3.70;;
24995;SDS011;13016;52.162;21.034;2023-07-24T05:22:45;8.10;;;4.10;;
24995;SDS011;13016;52.162;21.034;2023-07-24T05:28:46;6.70;;;3.50;;
24995;SDS011;13016;52.162;21.034;2023-07-24T05:34:54;6.80;;;3.40;;
24995;SDS011;13016;52.162;21.034;2023-07-24T05:40:55;7.30;;;3.50;;
24995;SDS011;13016;52.162;21.034;2023-07-24T05:46:59;4.80;;;3.40;;
24995;SDS011;13016;52.162;21.034;2023-07-24T05:52:59;5.00;;;3.20;;
24995;SDS011;13016;52.162;21.034;2023-07-24T05:59:00;5.40;;;3.30;;
24995;SDS011;13016;52.162;21.034;2023-07-24T06:05:00;7.40;;;3.70;;
24995;SDS011;13016;52.162;21.034;2023-07-24T06:11:01;5.50;;;3.10;;
24995;SDS011;13016;52.162;21.034;2023-07-24T06:17:01;4.50;;;3.20;;
24995;SDS011;13016;52.162;21.034;2023-07-24T06:23:02;4.80;;;3.30;;
24995;SDS011;13016;52.162;21.034;2023-07-24T06:29:02;6.50;;;3.30;;
24995;SDS011;13016;52.162;21.034;2023-07-24T06:41:40;4.80;;;3.30;;
24995;SDS011;13016;52.162;21.034;2023-07-24T06:47:41;8.60;;;3.90;;
24995;SDS011;13016;52.162;21.034;2023-07-24T06:53:41;7.70;;;3.00;;
24995;SDS011;13016;52.162;21.034;2023-07-24T06:59:42;5.10;;;2.70;;
24995;SDS011;13016;52.162;21.034;2023-07-24T07:05:42;7.30;;;3.10;;
24995;SDS011;13016;52.162;21.034;2023-07-24T07:11:42;8.90;;;2.80;;
24995;SDS011;13016;52.162;21.034;2023-07-24T07:17:42;4.10;;;2.80;;
24995;SDS011;13016;52.162;21.034;2023-07-24T07:23:43;5.40;;;3.00;;
24995;SDS011;13016;52.162;21.034;2023-07-24T07:29:43;5.70;;;2.50;;
24995;SDS011;13016;52.162;21.034;2023-07-24T07:35:44;20.80;;;4.60;;
24995;SDS011;13016;52.162;21.034;2023-07-24T07:41:44;4.90;;;3.10;;
24995;SDS011;13016;52.162;21.034;2023-07-24T07:53:45;3.80;;;2.50;;
24995;SDS011;13016;52.162;21.034;2023-07-24T08:05:51;3.40;;;2.40;;
24995;SDS011;13016;52.162;21.034;2023-07-24T08:11:56;8.40;;;5.90;;
24995;SDS011;13016;52.162;21.034;2023-07-24T08:17:56;4.60;;;2.80;;
24995;SDS011;13016;52.162;21.034;2023-07-24T08:23:57;5.10;;;2.50;;
24995;SDS011;13016;52.162;21.034;2023-07-24T08:36:00;3.50;;;2.50;;
24995;SDS011;13016;52.162;21.034;2023-07-24T08:42:21;4.50;;;2.20;;
24995;SDS011;13016;52.162;21.034;2023-07-24T08:48:47;6.00;;;2.60;;
24995;SDS011;13016;52.162;21.034;2023-07-24T08:54:47;3.80;;;2.80;;
24995;SDS011;13016;52.162;21.034;2023-07-24T09:00:49;4.70;;;4.10;;
24995;SDS011;13016;52.162;21.034;2023-07-24T09:06:50;5.60;;;2.60;;
24995;SDS011;13016;52.162;21.034;2023-07-24T09:12:50;3.10;;;2.20;;
24995;SDS011;13016;52.162;21.034;2023-07-24T09:19:03;3.90;;;2.20;;
24995;SDS011;13016;52.162;21.034;2023-07-24T09:25:06;4.30;;;2.50;;
24995;SDS011;13016;52.162;21.034;2023-07-24T09:31:07;5.40;;;2.70;;
24995;SDS011;13016;52.162;21.034;2023-07-24T09:37:08;3.70;;;2.30;;
24995;SDS011;13016;52.162;21.034;2023-07-24T09:43:18;3.40;;;2.50;;
24995;SDS011;13016;52.162;21.034;2023-07-24T09:49:22;5.50;;;2.50;;
24995;SDS011;13016;52.162;21.034;2023-07-24T09:55:24;4.40;;;2.80;;
24995;SDS011;13016;52.162;21.034;2023-07-24T10:01:28;3.60;;;2.60;;
24995;SDS011;13016;52.162;21.034;2023-07-24T10:07:31;4.60;;;2.70;;
24995;SDS011;13016;52.162;21.034;2023-07-24T10:13:43;4.00;;;2.70;;
24995;SDS011;13016;52.162;21.034;2023-07-24T10:20:08;3.60;;;2.30;;
24995;SDS011;13016;52.162;21.034;2023-07-24T10:26:16;5.60;;;2.90;;
24995;SDS011;13016;52.162;21.034;2023-07-24T10:32:17;5.90;;;3.00;;
24995;SDS011;13016;52.162;21.034;2023-07-24T10:38:17;6.10;;;3.30;;
24995;SDS011;13016;52.162;21.034;2023-07-24T10:44:29;6.40;;;3.70;;
24995;SDS011;13016;52.162;21.034;2023-07-24T10:50:38;3.60;;;3.10;;
24995;SDS011;13016;52.162;21.034;2023-07-24T10:56:41;6.20;;;3.50;;
24995;SDS011;13016;52.162;21.034;2023-07-24T11:02:52;6.00;;;3.40;;
24995;SDS011;13016;52.162;21.034;2023-07-24T11:09:03;10.40;;;3.40;;
24995;SDS011;13016;52.162;21.034;2023-07-24T11:15:06;5.70;;;3.10;;
24995;SDS011;13016;52.162;21.034;2023-07-24T11:21:11;6.00;;;3.60;;
24995;SDS011;13016;52.162;21.034;2023-07-24T11:27:13;3.90;;;3.20;;
24995;SDS011;13016;52.162;21.034;2023-07-24T11:33:15;7.50;;;3.30;;
24995;SDS011;13016;52.162;21.034;2023-07-24T11:39:25;6.20;;;3.10;;
24995;SDS011;13016;52.162;21.034;2023-07-24T11:45:26;7.10;;;3.30;;
24995;SDS011;13016;52.162;21.034;2023-07-24T11:51:26;5.20;;;3.10;;
24995;SDS011;13016;52.162;21.034;2023-07-24T11:57:32;3.80;;;3.30;;
24995;SDS011;13016;52.162;21.034;2023-07-24T12:03:32;8.40;;;3.10;;
24995;SDS011;13016;52.162;21.034;2023-07-24T12:09:33;6.20;;;3.40;;
24995;SDS011;13016;52.162;21.034;2023-07-24T12:15:33;4.00;;;2.90;;
24995;SDS011;13016;52.162;21.034;2023-07-24T12:21:34;5.80;;;3.60;;
24995;SDS011;13016;52.162;21.034;2023-07-24T12:27:34;6.30;;;3.40;;
24995;SDS011;13016;52.162;21.034;2023-07-24T12:33:35;6.40;;;3.30;;
24995;SDS011;13016;52.162;21.034;2023-07-24T12:39:38;7.40;;;3.40;;
24995;SDS011;13016;52.162;21.034;2023-07-24T12:45:57;5.70;;;3.20;;
24995;SDS011;13016;52.162;21.034;2023-07-24T12:51:57;3.70;;;3.20;;
24995;SDS011;13016;52.162;21.034;2023-07-24T12:57:58;5.40;;;3.20;;
24995;SDS011;13016;52.162;21.034;2023-07-24T13:09:58;6.50;;;3.10;;
24995;SDS011;13016;52.162;21.034;2023-07-24T13:15:59;4.70;;;3.20;;
24995;SDS011;13016;52.162;21.034;2023-07-24T13:21:59;5.40;;;3.40;;
24995;SDS011;13016;52.162;21.034;2023-07-24T13:28:00;6.40;;;3.40;;
24995;SDS011;13016;52.162;21.034;2023-07-24T13:34:00;5.90;;;3.40;;
24995;SDS011;13016;52.162;21.034;2023-07-24T13:40:01;7.30;;;3.60;;
24995;SDS011;13016;52.162;21.034;2023-07-24T13:52:01;4.90;;;3.30;;
24995;SDS011;13016;52.162;21.034;2023-07-24T13:58:01;7.10;;;3.60;;
24995;SDS011;13016;52.162;21.034;2023-07-24T14:10:02;4.10;;;3.10;;
24995;SDS011;13016;52.162;21.034;2023-07-24T14:16:02;6.50;;;3.20;;
24995;SDS011;13016;52.162;21.034;2023-07-24T14:22:02;5.80;;;3.40;;
24995;SDS011;13016;52.162;21.034;2023-07-24T14:28:02;4.30;;;3.30;;
24995;SDS011;13016;52.162;21.034;2023-07-24T14:34:03;4.80;;;3.30;;
24995;SDS011;13016;52.162;21.034;2023-07-24T14:40:04;4.70;;;3.40;;
24995;SDS011;13016;52.162;21.034;2023-07-24T14:46:05;8.10;;;3.70;;
24995;SDS011;13016;52.162;21.034;2023-07-24T14:52:05;4.90;;;3.60;;
24995;SDS011;13016;52.162;21.034;2023-07-24T14:58:05;21.00;;;17.30;;
24995;SDS011;13016;52.162;21.034;2023-07-24T15:10:06;8.40;;;3.80;;
24995;SDS011;13016;52.162;21.034;2023-07-24T15:16:06;5.40;;;3.90;;
24995;SDS011;13016;52.162;21.034;2023-07-24T15:28:07;6.00;;;4.30;;
24995;SDS011;13016;52.162;21.034;2023-07-24T15:40:07;6.80;;;4.70;;
24995;SDS011;13016;52.162;21.034;2023-07-24T15:46:08;6.10;;;4.30;;
24995;SDS011;13016;52.162;21.034;2023-07-24T15:58:08;7.50;;;5.00;;
24995;SDS011;13016;52.162;21.034;2023-07-24T16:10:08;7.70;;;4.70;;
24995;SDS011;13016;52.162;21.034;2023-07-24T16:22:09;7.70;;;4.70;;
24995;SDS011;13016;52.162;21.034;2023-07-24T16:34:09;7.40;;;5.10;;
24995;SDS011;13016;52.162;21.034;2023-07-24T16:46:10;9.50;;;6.90;;
24995;SDS011;13016;52.162;21.034;2023-07-24T16:58:11;8.30;;;5.60;;
24995;SDS011;13016;52.162;21.034;2023-07-24T17:10:11;8.70;;;5.80;;
24995;SDS011;13016;52.162;21.034;2023-07-24T17:16:17;11.60;;;6.10;;
24995;SDS011;13016;52.162;21.034;2023-07-24T17:22:17;9.20;;;6.10;;
24995;SDS011;13016;52.162;21.034;2023-07-24T17:28:18;11.50;;;6.30;;
24995;SDS011;13016;52.162;21.034;2023-07-24T17:34:18;13.40;;;8.80;;
24995;SDS011;13016;52.162;21.034;2023-07-24T17:40:18;11.10;;;7.00;;
24995;SDS011;13016;52.162;21.034;2023-07-24T17:46:18;13.40;;;6.90;;
24995;SDS011;13016;52.162;21.034;2023-07-24T17:52:19;12.30;;;7.00;;
24995;SDS011;13016;52.162;21.034;2023-07-24T18:04:19;12.50;;;6.20;;
24995;SDS011;13016;52.162;21.034;2023-07-24T18:16:20;13.50;;;7.20;;
24995;SDS011;13016;52.162;21.034;2023-07-24T18:22:20;13.90;;;6.50;;
24995;SDS011;13016;52.162;21.034;2023-07-24T18:28:20;11.70;;;7.00;;
24995;SDS011;13016;52.162;21.034;2023-07-24T18:34:20;15.10;;;7.30;;
24995;SDS011;13016;52.162;21.034;2023-07-24T18:40:21;10.30;;;6.80;;
24995;SDS011;13016;52.162;21.034;2023-07-24T18:46:21;9.90;;;7.10;;
24995;SDS011;13016;52.162;21.034;2023-07-24T18:52:21;12.90;;;8.10;;
24995;SDS011;13016;52.162;21.034;2023-07-24T18:58:21;13.00;;;7.30;;
24995;SDS011;13016;52.162;21.034;2023-07-24T19:04:22;11.20;;;6.90;;
24995;SDS011;13016;52.162;21.034;2023-07-24T19:10:22;14.20;;;7.00;;
24995;SDS011;13016;52.162;21.034;2023-07-24T19:16:22;14.30;;;7.20;;
24995;SDS011;13016;52.162;21.034;2023-07-24T19:22:23;12.60;;;8.40;;
24995;SDS011;13016;52.162;21.034;2023-07-24T19:28:23;12.80;;;6.20;;
24995;SDS011;13016;52.162;21.034;2023-07-24T19:40:24;20.50;;;16.00;;
24995;SDS011;13016;52.162;21.034;2023-07-24T19:46:24;12.30;;;5.70;;
24995;SDS011;13016;52.162;21.034;2023-07-24T19:52:24;10.20;;;5.80;;
24995;SDS011;13016;52.162;21.034;2023-07-24T19:58:24;10.20;;;5.80;;
24995;SDS011;13016;52.162;21.034;2023-07-24T20:04:25;7.90;;;5.30;;
24995;SDS011;13016;52.162;21.034;2023-07-24T20:10:25;17.80;;;6.10;;
24995;SDS011;13016;52.162;21.034;2023-07-24T20:16:25;8.50;;;5.90;;
24995;SDS011;13016;52.162;21.034;2023-07-24T20:22:25;9.10;;;6.00;;
24995;SDS011;13016;52.162;21.034;2023-07-24T20:28:25;10.50;;;7.10;;
24995;SDS011;13016;52.162;21.034;2023-07-24T20:34:26;12.70;;;7.00;;
24995;SDS011;13016;52.162;21.034;2023-07-24T20:40:26;9.20;;;7.10;;
24995;SDS011;13016;52.162;21.034;2023-07-24T20:46:26;12.80;;;8.50;;
24995;SDS011;13016;52.162;21.034;2023-07-24T20:52:26;12.10;;;7.80;;
24995;SDS011;13016;52.162;21.034;2023-07-24T20:58:27;9.60;;;6.40;;
24995;SDS011;13016;52.162;21.034;2023-07-24T21:04:27;11.10;;;6.80;;
24995;SDS011;13016;52.162;21.034;2023-07-24T21:10:27;10.50;;;6.00;;
24995;SDS011;13016;52.162;21.034;2023-07-24T21:16:27;8.20;;;6.30;;
24995;SDS011;13016;52.162;21.034;2023-07-24T21:22:27;8.70;;;6.30;;
24995;SDS011;13016;52.162;21.034;2023-07-24T21:28:28;9.10;;;6.40;;
24995;SDS011;13016;52.162;21.034;2023-07-24T21:34:28;9.80;;;6.90;;
24995;SDS011;13016;52.162;21.034;2023-07-24T21:40:28;10.50;;;6.80;;
24995;SDS011;13016;52.162;21.034;2023-07-24T21:46:28;15.70;;;12.10;;
24995;SDS011;13016;52.162;21.034;2023-07-24T21:52:29;11.20;;;6.90;;
24995;SDS011;13016;52.162;21.034;2023-07-24T21:58:29;11.60;;;6.70;;
24995;SDS011;13016;52.162;21.034;2023-07-24T22:04:29;11.30;;;6.60;;
24995;SDS011;13016;52.162;21.034;2023-07-24T22:10:29;10.80;;;7.00;;
24995;SDS011;13016;52.162;21.034;2023-07-24T22:16:29;14.60;;;6.80;;
24995;SDS011;13016;52.162;21.034;2023-07-24T22:22:30;11.30;;;7.60;;
24995;SDS011;13016;52.162;21.034;2023-07-24T22:28:30;10.30;;;7.10;;
24995;SDS011;13016;52.162;21.034;2023-07-24T22:34:30;10.00;;;6.80;;
24995;SDS011;13016;52.162;21.034;2023-07-24T22:40:31;9.70;;;6.80;;
24995;SDS011;13016;52.162;21.034;2023-07-24T22:46:31;10.20;;;7.60;;
24995;SDS011;13016;52.162;21.034;2023-07-24T22:52:31;10.20;;;7.20;;
24995;SDS011;13016;52.162;21.034;2023-07-24T22:58:34;16.40;;;11.60;;
24995;SDS011;13016;52.162;21.034;2023-07-24T23:05:08;10.20;;;7.00;;
24995;SDS011;13016;52.162;21.034;2023-07-24T23:11:09;13.80;;;7.60;;
24995;SDS011;13016;52.162;21.034;2023-07-24T23:17:09;12.20;;;7.80;;
24995;SDS011;13016;52.162;21.034;2023-07-24T23:23:09;11.00;;;7.50;;
24995;SDS011;13016;52.162;21.034;2023-07-24T23:29:09;9.90;;;6.90;;
24995;SDS011;13016;52.162;21.034;2023-07-24T23:35:10;10.70;;;7.60;;
24995;SDS011;13016;52.162;21.034;2023-07-24T23:41:10;9.20;;;7.00;;
24995;SDS011;13016;52.162;21.034;2023-07-24T23:47:10;12.60;;;7.80;;
24995;SDS011;13016;52.162;21.034;2023-07-24T23:53:10;11.10;;;7.40;;
24995;SDS011;13016;52.162;21.034;2023-07-24T23:59:11;11.30;;;7.10;;
